createdAt,value
2023-05-19T00:00:14.761Z,63.46
2023-05-19T00:01:14.755Z,63.48
2023-05-19T00:02:14.801Z,63.48
2023-05-19T00:03:14.961Z,63.47
2023-05-19T00:04:14.861Z,63.36
2023-05-19T00:05:14.929Z,63.20
2023-05-19T00:06:15.115Z,63.04
2023-05-19T00:07:15.024Z,63.05
2023-05-19T00:08:15.061Z,63.30
2023-05-19T00:09:15.988Z,63.49
2023-05-19T00:10:15.112Z,63.44
2023-05-19T00:11:15.133Z,63.55
2023-05-19T00:12:15.134Z,63.46
2023-05-19T00:13:15.123Z,63.34
2023-05-19T00:14:15.113Z,63.25
2023-05-19T00:15:15.098Z,63.16
2023-05-19T00:16:15.166Z,63.15
2023-05-19T00:17:15.106Z,63.33
2023-05-19T00:18:15.180Z,63.37
2023-05-19T00:19:15.127Z,63.40
2023-05-19T00:20:15.095Z,63.58
2023-05-19T00:21:15.117Z,63.62
2023-05-19T00:22:15.114Z,63.73
2023-05-19T00:23:15.120Z,63.68
2023-05-19T00:24:15.121Z,63.81
2023-05-19T00:25:15.127Z,64.08
2023-05-19T00:26:15.184Z,64.35
2023-05-19T00:27:15.239Z,64.28
2023-05-19T00:28:15.296Z,64.44
2023-05-19T00:29:15.361Z,64.37
2023-05-19T00:30:15.460Z,64.56
2023-05-19T00:31:15.535Z,64.58
2023-05-19T00:32:15.610Z,64.32
2023-05-19T00:33:15.551Z,64.54
2023-05-19T00:34:15.543Z,64.81
2023-05-19T00:35:15.592Z,64.93
2023-05-19T00:36:15.697Z,64.93
2023-05-19T00:37:15.715Z,65.24
2023-05-19T00:38:15.739Z,65.24
2023-05-19T00:39:16.530Z,65.32
2023-05-19T00:40:15.818Z,65.57
2023-05-19T00:41:15.908Z,65.20
2023-05-19T00:42:15.983Z,65.27
2023-05-19T00:43:16.011Z,65.55
2023-05-19T00:44:16.057Z,65.68
2023-05-19T00:45:16.092Z,65.84
2023-05-19T00:46:16.179Z,65.89
2023-05-19T00:47:16.243Z,65.83
2023-05-19T00:48:16.318Z,65.72
2023-05-19T00:49:16.361Z,66.07
2023-05-19T00:50:16.421Z,65.98
2023-05-19T00:51:16.427Z,66.15
2023-05-19T00:52:16.459Z,66.22
2023-05-19T00:53:16.496Z,65.88
2023-05-19T00:54:16.570Z,65.98
2023-05-19T00:55:16.624Z,66.07
2023-05-19T00:56:16.659Z,66.08
2023-05-19T00:57:16.634Z,66.14
2023-05-19T00:58:16.685Z,65.97
2023-05-19T00:59:16.678Z,65.96
2023-05-19T01:00:16.718Z,65.86
2023-05-19T01:01:16.835Z,65.83
2023-05-19T01:02:16.854Z,65.96
2023-05-19T01:03:16.952Z,65.97
2023-05-19T01:04:16.997Z,65.92
2023-05-19T01:05:17.078Z,65.98
2023-05-19T01:06:17.137Z,65.98
2023-05-19T01:07:17.209Z,65.71
2023-05-19T01:08:17.276Z,65.77
2023-05-19T01:09:17.295Z,65.83
2023-05-19T01:10:17.315Z,65.88
2023-05-19T01:11:17.506Z,65.93
2023-05-19T01:12:17.414Z,66.09
2023-05-19T01:13:17.483Z,66.03
2023-05-19T01:14:17.580Z,65.89
2023-05-19T01:15:17.676Z,65.93
2023-05-19T01:16:17.696Z,66.13
2023-05-19T01:17:17.695Z,66.21
2023-05-19T01:18:17.722Z,66.42
2023-05-19T01:19:17.831Z,66.62
2023-05-19T01:20:17.808Z,66.58
2023-05-19T01:21:17.805Z,66.60
2023-05-19T01:22:17.872Z,66.66
2023-05-19T01:23:17.923Z,66.73
2023-05-19T01:24:17.989Z,66.79
2023-05-19T01:25:17.992Z,66.82
2023-05-19T01:26:18.025Z,66.60
2023-05-19T01:27:18.052Z,66.58
2023-05-19T01:28:18.106Z,66.71
2023-05-19T01:29:18.128Z,66.67
2023-05-19T01:30:18.143Z,66.63
2023-05-19T01:31:18.246Z,66.58
2023-05-19T01:32:18.262Z,66.55
2023-05-19T01:33:18.333Z,66.38
2023-05-19T01:34:18.408Z,66.28
2023-05-19T01:35:18.448Z,66.36
2023-05-19T01:36:19.034Z,66.72
2023-05-19T01:37:18.576Z,66.77
2023-05-19T01:38:18.589Z,66.77
2023-05-19T01:39:18.627Z,66.77
2023-05-19T01:40:18.652Z,66.82
2023-05-19T01:41:18.696Z,66.79
2023-05-19T01:42:18.770Z,66.64
2023-05-19T01:43:18.821Z,66.62
2023-05-19T01:44:18.889Z,66.63
2023-05-19T01:45:18.970Z,66.63
2023-05-19T01:46:19.109Z,66.73
2023-05-19T01:47:19.106Z,66.65
2023-05-19T01:48:19.152Z,66.67
2023-05-19T01:49:19.209Z,66.83
2023-05-19T01:50:19.284Z,66.88
2023-05-19T01:51:19.314Z,67.06
2023-05-19T01:52:19.361Z,67.14
2023-05-19T01:53:19.348Z,67.27
2023-05-19T01:54:19.375Z,67.53
2023-05-19T01:55:19.403Z,67.49
2023-05-19T01:56:19.429Z,67.31
2023-05-19T01:57:19.468Z,67.31
2023-05-19T01:58:19.498Z,67.21
2023-05-19T01:59:19.537Z,67.18
2023-05-19T02:00:21.234Z,67.16
2023-05-19T02:01:19.585Z,67.20
2023-05-19T02:02:19.614Z,67.30
2023-05-19T02:03:19.760Z,67.43
2023-05-19T02:04:19.845Z,67.49
2023-05-19T02:05:19.807Z,67.64
2023-05-19T02:06:19.878Z,67.82
2023-05-19T02:07:19.926Z,67.99
2023-05-19T02:08:19.970Z,68.18
2023-05-19T02:09:19.993Z,67.88
2023-05-19T02:10:20.069Z,67.88
2023-05-19T02:11:20.159Z,67.81
2023-05-19T02:12:20.226Z,67.84
2023-05-19T02:13:20.240Z,67.78
2023-05-19T02:14:20.283Z,67.81
2023-05-19T02:15:20.317Z,67.92
2023-05-19T02:16:20.455Z,67.78
2023-05-19T02:17:20.428Z,67.67
2023-05-19T02:18:20.411Z,67.71
2023-05-19T02:19:20.515Z,67.74
2023-05-19T02:20:20.468Z,67.71
2023-05-19T02:21:20.524Z,67.61
2023-05-19T02:22:20.531Z,67.51
2023-05-19T02:23:20.572Z,67.51
2023-05-19T02:24:20.592Z,67.57
2023-05-19T02:25:20.634Z,67.56
2023-05-19T02:26:20.673Z,67.51
2023-05-19T02:27:20.709Z,67.49
2023-05-19T02:28:20.766Z,67.53
2023-05-19T02:29:20.757Z,67.54
2023-05-19T02:30:20.941Z,67.45
2023-05-19T02:31:20.833Z,67.36
2023-05-19T02:32:20.831Z,67.27
2023-05-19T02:33:20.850Z,67.40
2023-05-19T02:34:21.515Z,67.29
2023-05-19T02:35:20.999Z,67.05
2023-05-19T02:36:21.075Z,67.13
2023-05-19T02:37:21.140Z,67.15
2023-05-19T02:38:21.162Z,67.29
2023-05-19T02:39:21.193Z,67.43
2023-05-19T02:40:21.207Z,67.44
2023-05-19T02:41:21.245Z,67.51
2023-05-19T02:42:21.280Z,67.61
2023-05-19T02:43:21.367Z,67.67
2023-05-19T02:44:21.355Z,67.70
2023-05-19T02:45:21.360Z,67.78
2023-05-19T02:46:21.584Z,67.89
2023-05-19T02:47:21.478Z,67.88
2023-05-19T02:48:21.502Z,67.94
2023-05-19T02:49:21.521Z,67.93
2023-05-19T02:50:21.565Z,68.00
2023-05-19T02:51:21.599Z,68.02
2023-05-19T02:52:21.675Z,68.01
2023-05-19T02:53:21.743Z,68.07
2023-05-19T02:54:21.808Z,68.23
2023-05-19T02:55:21.889Z,68.39
2023-05-19T02:56:21.924Z,68.36
2023-05-19T02:57:21.988Z,68.37
2023-05-19T02:58:22.050Z,68.54
2023-05-19T02:59:21.992Z,68.47
2023-05-19T03:00:22.041Z,68.26
2023-05-19T03:01:22.142Z,67.98
2023-05-19T03:02:22.132Z,67.84
2023-05-19T03:03:22.242Z,67.63
2023-05-19T03:04:22.201Z,67.62
2023-05-19T03:05:22.273Z,67.54
2023-05-19T03:06:22.255Z,67.50
2023-05-19T03:07:22.279Z,67.48
2023-05-19T03:08:22.301Z,67.54
2023-05-19T03:09:22.320Z,67.57
2023-05-19T03:10:22.379Z,67.64
2023-05-19T03:11:22.382Z,67.70
2023-05-19T03:12:22.418Z,67.84
2023-05-19T03:13:22.436Z,68.03
2023-05-19T03:14:22.465Z,68.05
2023-05-19T03:15:22.508Z,68.12
2023-05-19T03:16:22.596Z,68.24
2023-05-19T03:17:22.631Z,68.20
2023-05-19T03:18:22.626Z,68.23
2023-05-19T03:19:22.844Z,68.49
2023-05-19T03:20:22.784Z,68.39
2023-05-19T03:21:22.914Z,68.30
2023-05-19T03:22:22.946Z,68.44
2023-05-19T03:23:23.037Z,68.51
2023-05-19T03:24:23.090Z,68.43
2023-05-19T03:25:23.144Z,68.26
2023-05-19T03:26:23.198Z,68.14
2023-05-19T03:27:23.297Z,68.03
2023-05-19T03:28:23.318Z,68.04
2023-05-19T03:29:23.345Z,68.06
2023-05-19T03:30:23.359Z,67.96
2023-05-19T03:31:23.379Z,68.00
2023-05-19T03:32:23.473Z,68.03
2023-05-19T03:33:23.693Z,68.00
2023-05-19T03:34:23.492Z,68.26
2023-05-19T03:35:23.492Z,68.22
2023-05-19T03:36:23.491Z,68.22
2023-05-19T03:37:23.552Z,68.43
2023-05-19T03:38:23.633Z,68.48
2023-05-19T03:39:23.667Z,68.47
2023-05-19T03:40:23.709Z,68.47
2023-05-19T03:41:23.771Z,68.46
2023-05-19T03:42:23.850Z,68.44
2023-05-19T03:43:23.905Z,68.39
2023-05-19T03:44:23.955Z,68.37
2023-05-19T03:45:24.009Z,68.37
2023-05-19T03:46:24.150Z,68.30
2023-05-19T03:47:24.247Z,68.21
2023-05-19T03:48:24.275Z,68.11
2023-05-19T03:49:24.367Z,68.12
2023-05-19T03:50:24.409Z,68.03
2023-05-19T03:51:24.491Z,67.87
2023-05-19T03:52:24.552Z,67.87
2023-05-19T03:53:24.661Z,67.83
2023-05-19T03:54:24.702Z,67.70
2023-05-19T03:55:24.758Z,67.60
2023-05-19T03:56:24.829Z,67.56
2023-05-19T03:57:24.852Z,67.45
2023-05-19T03:58:24.920Z,67.55
2023-05-19T03:59:24.943Z,67.42
2023-05-19T04:00:25.024Z,67.19
2023-05-19T04:01:25.018Z,67.16
2023-05-19T04:02:25.168Z,67.13
2023-05-19T04:03:25.159Z,67.05
2023-05-19T04:04:25.215Z,67.06
2023-05-19T04:05:25.206Z,66.94
2023-05-19T04:06:25.264Z,66.91
2023-05-19T04:07:25.346Z,66.72
2023-05-19T04:08:25.365Z,66.63
2023-05-19T04:09:25.409Z,66.48
2023-05-19T04:10:25.446Z,66.32
2023-05-19T04:11:25.499Z,66.32
2023-05-19T04:12:25.594Z,66.36
2023-05-19T04:13:25.673Z,66.30
2023-05-19T04:14:25.701Z,66.18
2023-05-19T04:15:25.727Z,66.14
2023-05-19T04:16:25.774Z,66.06
2023-05-19T04:17:25.845Z,65.94
2023-05-19T04:18:26.935Z,65.93
2023-05-19T04:19:25.898Z,65.82
2023-05-19T04:20:25.913Z,65.78
2023-05-19T04:21:25.926Z,65.77
2023-05-19T04:22:25.978Z,65.84
2023-05-19T04:23:25.945Z,65.78
2023-05-19T04:24:25.983Z,65.64
2023-05-19T04:25:25.979Z,65.61
2023-05-19T04:26:25.988Z,65.57
2023-05-19T04:27:26.026Z,65.42
2023-05-19T04:28:26.023Z,65.10
2023-05-19T04:29:26.023Z,64.68
2023-05-19T04:30:26.058Z,64.65
2023-05-19T04:31:26.113Z,64.57
2023-05-19T04:32:26.173Z,64.51
2023-05-19T04:33:26.064Z,64.31
2023-05-19T04:34:26.079Z,63.96
2023-05-19T04:35:26.060Z,63.81
2023-05-19T04:36:26.107Z,64.01
2023-05-19T04:37:26.112Z,64.02
2023-05-19T04:38:26.098Z,63.96
2023-05-19T04:39:26.124Z,64.01
2023-05-19T04:40:26.112Z,64.11
2023-05-19T04:41:26.144Z,64.41
2023-05-19T04:42:26.261Z,64.49
2023-05-19T04:43:26.140Z,64.58
2023-05-19T04:44:26.170Z,64.76
2023-05-19T04:45:26.180Z,64.42
2023-05-19T04:46:26.281Z,64.37
2023-05-19T04:47:26.272Z,64.31
2023-05-19T04:48:26.217Z,64.30
2023-05-19T04:49:26.260Z,64.09
2023-05-19T04:50:26.263Z,63.91
2023-05-19T04:51:26.268Z,63.95
2023-05-19T04:52:26.262Z,63.81
2023-05-19T04:53:26.264Z,63.68
2023-05-19T04:54:26.276Z,63.53
2023-05-19T04:55:26.295Z,63.57
2023-05-19T04:56:26.298Z,63.67
2023-05-19T04:57:26.271Z,63.64
2023-05-19T04:58:26.277Z,63.58
2023-05-19T04:59:26.265Z,63.31
2023-05-19T05:00:26.277Z,63.22
2023-05-19T05:01:26.470Z,63.27
2023-05-19T05:02:26.324Z,63.13
2023-05-19T05:03:26.612Z,63.04
2023-05-19T05:04:26.284Z,63.03
2023-05-19T05:05:26.280Z,62.92
2023-05-19T05:06:26.297Z,62.82
2023-05-19T05:07:26.299Z,62.93
2023-05-19T05:08:26.288Z,62.83
2023-05-19T05:09:26.294Z,62.74
2023-05-19T05:10:26.290Z,62.38
2023-05-19T05:11:26.298Z,62.11
2023-05-19T05:12:26.338Z,62.09
2023-05-19T05:13:26.320Z,62.07
2023-05-19T05:14:26.322Z,62.00
2023-05-19T05:15:26.325Z,61.90
2023-05-19T05:16:26.360Z,61.74
2023-05-19T05:17:26.404Z,61.37
2023-05-19T05:18:26.411Z,60.79
2023-05-19T05:19:26.630Z,60.65
2023-05-19T05:20:26.544Z,60.64
2023-05-19T05:21:26.612Z,60.57
2023-05-19T05:22:26.633Z,60.44
2023-05-19T05:23:26.655Z,60.36
2023-05-19T05:24:26.681Z,60.27
2023-05-19T05:25:26.680Z,60.28
2023-05-19T05:26:26.681Z,60.24
2023-05-19T05:27:26.662Z,60.35
2023-05-19T05:28:26.745Z,60.28
2023-05-19T05:29:26.715Z,59.98
2023-05-19T05:30:26.720Z,59.90
2023-05-19T05:31:26.750Z,60.02
2023-05-19T05:32:26.834Z,59.92
2023-05-19T05:33:26.964Z,59.72
2023-05-19T05:34:26.861Z,59.57
2023-05-19T05:35:26.872Z,59.71
2023-05-19T05:36:26.936Z,59.94
2023-05-19T05:37:26.908Z,59.86
2023-05-19T05:38:26.977Z,59.99
2023-05-19T05:39:27.088Z,60.08
2023-05-19T05:40:27.135Z,59.85
2023-05-19T05:41:27.186Z,59.25
2023-05-19T05:42:28.979Z,58.76
2023-05-19T05:43:27.301Z,58.55
2023-05-19T05:44:27.340Z,58.33
2023-05-19T05:45:27.405Z,58.34
2023-05-19T05:46:27.494Z,58.28
2023-05-19T05:47:27.422Z,58.03
2023-05-19T05:48:27.445Z,57.72
2023-05-19T05:49:27.399Z,57.35
2023-05-19T05:50:27.365Z,57.25
2023-05-19T05:51:27.280Z,57.44
2023-05-19T05:52:27.239Z,57.79
2023-05-19T05:53:27.202Z,57.94
2023-05-19T05:54:27.176Z,58.52
2023-05-19T05:55:27.187Z,58.68
2023-05-19T05:56:27.162Z,58.82
2023-05-19T05:57:27.152Z,58.74
2023-05-19T05:58:27.149Z,58.40
2023-05-19T05:59:27.097Z,58.06
2023-05-19T06:00:27.046Z,57.58
2023-05-19T06:01:27.061Z,57.45
2023-05-19T06:02:27.099Z,57.19
2023-05-19T06:03:27.136Z,56.97
2023-05-19T06:04:27.019Z,56.71
2023-05-19T06:05:27.171Z,56.22
2023-05-19T06:06:27.100Z,56.04
2023-05-19T06:07:27.086Z,55.90
2023-05-19T06:08:27.165Z,55.86
2023-05-19T06:09:27.081Z,55.27
2023-05-19T06:10:27.039Z,55.13
2023-05-19T06:11:27.084Z,55.00
2023-05-19T06:12:27.039Z,55.48
2023-05-19T06:13:26.938Z,55.19
2023-05-19T06:14:26.908Z,54.86
2023-05-19T06:15:26.850Z,55.26
2023-05-19T06:16:26.851Z,54.99
2023-05-19T06:17:26.843Z,54.81
2023-05-19T06:18:26.792Z,54.67
2023-05-19T06:19:26.796Z,54.50
2023-05-19T06:20:26.686Z,54.71
2023-05-19T06:21:26.709Z,54.85
2023-05-19T06:22:26.750Z,54.74
2023-05-19T06:23:26.788Z,54.86
2023-05-19T06:24:26.720Z,54.54
2023-05-19T06:25:26.763Z,53.69
2023-05-19T06:26:26.787Z,53.42
2023-05-19T06:27:26.792Z,53.58
2023-05-19T06:28:26.795Z,54.14
2023-05-19T06:29:26.812Z,54.42
2023-05-19T06:30:26.792Z,54.50
2023-05-19T06:31:26.855Z,55.14
2023-05-19T06:32:26.776Z,55.16
2023-05-19T06:33:28.960Z,54.91
2023-05-19T06:34:26.908Z,54.96
2023-05-19T06:35:26.882Z,54.86
2023-05-19T06:36:26.921Z,55.31
2023-05-19T06:37:26.920Z,55.12
2023-05-19T06:38:26.898Z,55.44
2023-05-19T06:39:26.892Z,56.01
2023-05-19T06:40:26.963Z,55.70
2023-05-19T06:41:26.863Z,55.80
2023-05-19T06:42:26.920Z,55.50
2023-05-19T06:43:26.920Z,55.38
2023-05-19T06:44:26.903Z,55.08
2023-05-19T06:45:26.871Z,54.91
2023-05-19T06:46:26.916Z,54.79
2023-05-19T06:47:26.927Z,54.67
2023-05-19T06:48:26.922Z,55.40
2023-05-19T06:49:26.953Z,55.21
2023-05-19T06:50:26.959Z,54.96
2023-05-19T06:51:26.973Z,55.23
2023-05-19T06:52:26.958Z,55.26
2023-05-19T06:53:26.978Z,55.55
2023-05-19T06:54:27.021Z,55.51
2023-05-19T06:55:26.989Z,55.09
2023-05-19T06:56:26.985Z,54.92
2023-05-19T06:57:26.987Z,54.71
2023-05-19T06:58:27.002Z,54.94
2023-05-19T06:59:27.021Z,55.40
2023-05-19T07:00:27.031Z,55.25
2023-05-19T07:01:27.026Z,55.18
2023-05-19T07:02:27.024Z,55.56
2023-05-19T07:03:27.080Z,55.43
2023-05-19T07:04:26.951Z,55.22
2023-05-19T07:05:26.917Z,56.04
2023-05-19T07:06:26.906Z,55.94
2023-05-19T07:07:26.874Z,55.78
2023-05-19T07:08:26.902Z,55.79
2023-05-19T07:09:26.882Z,55.47
2023-05-19T07:10:26.943Z,55.30
2023-05-19T07:11:26.915Z,55.08
2023-05-19T07:12:26.927Z,54.45
2023-05-19T07:13:27.555Z,55.16
2023-05-19T07:14:26.924Z,54.29
2023-05-19T07:15:26.949Z,53.62
2023-05-19T07:16:26.932Z,53.64
2023-05-19T07:17:26.944Z,52.95
2023-05-19T07:18:26.922Z,52.39
2023-05-19T07:19:26.938Z,51.82
2023-05-19T07:20:26.908Z,51.02
2023-05-19T07:21:26.829Z,50.35
2023-05-19T07:22:26.824Z,50.51
2023-05-19T07:23:26.799Z,51.25
2023-05-19T07:24:26.816Z,51.62
2023-05-19T07:25:26.760Z,50.83
2023-05-19T07:26:26.779Z,50.65
2023-05-19T07:27:26.766Z,50.64
2023-05-19T07:28:26.792Z,51.11
2023-05-19T07:29:27.598Z,50.89
2023-05-19T07:30:26.781Z,51.06
2023-05-19T07:31:26.807Z,50.61
2023-05-19T07:32:26.824Z,49.79
2023-05-19T07:33:26.720Z,49.85
2023-05-19T07:34:26.709Z,49.43
2023-05-19T07:35:26.667Z,49.27
2023-05-19T07:36:26.626Z,49.03
2023-05-19T07:37:26.641Z,49.41
2023-05-19T07:38:26.667Z,50.07
2023-05-19T07:39:26.522Z,49.47
2023-05-19T07:40:26.482Z,48.65
2023-05-19T07:41:26.447Z,48.96
2023-05-19T07:42:26.544Z,49.18
2023-05-19T07:43:26.351Z,49.55
2023-05-19T07:44:26.363Z,50.16
2023-05-19T07:45:26.316Z,49.94
2023-05-19T07:46:26.359Z,50.41
2023-05-19T07:47:26.319Z,50.82
2023-05-19T07:48:26.284Z,50.80
2023-05-19T07:49:26.217Z,51.04
2023-05-19T07:50:26.251Z,51.04
2023-05-19T07:51:26.121Z,51.78
2023-05-19T07:52:26.240Z,51.02
2023-05-19T07:53:26.036Z,50.72
2023-05-19T07:54:26.026Z,49.94
2023-05-19T07:55:25.924Z,50.01
2023-05-19T07:56:25.887Z,50.86
2023-05-19T07:57:25.948Z,50.28
2023-05-19T07:58:25.831Z,49.86
2023-05-19T07:59:25.751Z,50.02
2023-05-19T08:00:25.758Z,49.02
2023-05-19T08:01:25.874Z,48.13
2023-05-19T08:02:25.801Z,48.25
2023-05-19T08:03:25.833Z,48.10
2023-05-19T08:04:25.689Z,47.57
2023-05-19T08:05:25.676Z,47.24
2023-05-19T08:06:25.622Z,48.15
2023-05-19T08:07:25.590Z,48.23
2023-05-19T08:08:25.571Z,48.77
2023-05-19T08:09:25.569Z,49.35
2023-05-19T08:10:25.545Z,49.65
2023-05-19T08:11:25.544Z,49.17
2023-05-19T08:12:25.580Z,49.52
2023-05-19T08:13:26.121Z,49.39
2023-05-19T08:14:25.565Z,49.54
2023-05-19T08:15:25.602Z,49.64
2023-05-19T08:16:25.677Z,49.91
2023-05-19T08:17:25.533Z,49.42
2023-05-19T08:18:25.483Z,48.96
2023-05-19T08:19:25.475Z,48.48
2023-05-19T08:20:25.421Z,47.69
2023-05-19T08:21:25.385Z,48.25
2023-05-19T08:22:27.162Z,47.69
2023-05-19T08:23:25.369Z,47.63
2023-05-19T08:24:25.393Z,48.45
2023-05-19T08:25:25.306Z,48.26
2023-05-19T08:26:25.286Z,49.66
2023-05-19T08:27:25.314Z,49.18
2023-05-19T08:28:25.280Z,49.21
2023-05-19T08:29:25.282Z,49.41
2023-05-19T08:30:25.248Z,49.38
2023-05-19T08:31:26.159Z,49.77
2023-05-19T08:32:25.320Z,49.55
2023-05-19T08:33:25.278Z,49.63
2023-05-19T08:34:26.122Z,49.67
2023-05-19T08:35:25.210Z,49.50
2023-05-19T08:36:25.328Z,49.43
2023-05-19T08:37:25.278Z,49.90
2023-05-19T08:38:25.204Z,50.49
2023-05-19T08:39:25.159Z,50.18
2023-05-19T08:40:25.094Z,50.93
2023-05-19T08:41:25.059Z,50.17
2023-05-19T08:42:25.034Z,49.65
2023-05-19T08:43:25.016Z,49.37
2023-05-19T08:44:24.981Z,49.43
2023-05-19T08:45:24.954Z,49.45
2023-05-19T08:46:24.975Z,49.17
2023-05-19T08:47:24.930Z,49.03
2023-05-19T08:48:24.829Z,49.53
2023-05-19T08:49:25.717Z,49.25
2023-05-19T08:50:24.799Z,49.49
2023-05-19T08:51:24.754Z,49.08
2023-05-19T08:52:24.702Z,49.73
2023-05-19T08:54:25.638Z,49.74
2023-05-19T08:55:24.532Z,50.11
2023-05-19T08:56:24.497Z,50.63
2023-05-19T08:57:24.467Z,50.28
2023-05-19T08:58:24.733Z,50.00
2023-05-19T08:59:24.350Z,49.26
2023-05-19T09:00:24.315Z,48.53
2023-05-19T09:01:24.356Z,49.22
2023-05-19T09:02:24.388Z,49.15
2023-05-19T09:03:24.501Z,49.04
2023-05-19T09:04:24.211Z,49.27
2023-05-19T09:05:24.074Z,49.93
2023-05-19T09:06:24.690Z,50.15
2023-05-19T09:07:24.048Z,50.46
2023-05-19T09:08:24.008Z,50.55
2023-05-19T09:09:23.982Z,49.99
2023-05-19T09:10:23.929Z,49.33
2023-05-19T09:11:23.857Z,49.34
2023-05-19T09:12:23.885Z,49.61
2023-05-19T09:13:23.841Z,49.75
2023-05-19T09:14:23.832Z,48.61
2023-05-19T09:15:23.834Z,48.13
2023-05-19T09:16:23.923Z,48.14
2023-05-19T09:17:23.871Z,47.54
2023-05-19T09:18:23.820Z,47.20
2023-05-19T09:19:23.915Z,47.26
2023-05-19T09:20:23.742Z,47.62
2023-05-19T09:21:23.716Z,48.02
2023-05-19T09:22:23.706Z,48.54
2023-05-19T09:23:23.667Z,48.00
2023-05-19T09:24:23.637Z,46.69
2023-05-19T09:25:23.565Z,45.70
2023-05-19T09:26:23.540Z,47.18
2023-05-19T09:27:23.519Z,47.56
2023-05-19T09:28:23.513Z,47.38
2023-05-19T09:29:23.455Z,47.35
2023-05-19T09:30:23.396Z,47.27
2023-05-19T09:31:23.363Z,47.03
2023-05-19T09:32:23.333Z,46.50
2023-05-19T09:33:23.224Z,47.07
2023-05-19T09:34:23.228Z,47.46
2023-05-19T09:35:23.123Z,46.99
2023-05-19T09:36:23.064Z,46.74
2023-05-19T09:37:23.011Z,46.15
2023-05-19T09:38:23.031Z,46.86
2023-05-19T09:39:22.934Z,47.30
2023-05-19T09:40:22.863Z,46.72
2023-05-19T09:41:22.783Z,46.23
2023-05-19T09:42:22.747Z,46.79
2023-05-19T09:43:23.129Z,46.34
2023-05-19T09:44:22.584Z,46.29
2023-05-19T09:45:22.497Z,46.23
2023-05-19T09:46:22.551Z,46.71
2023-05-19T09:47:22.467Z,46.94
2023-05-19T09:48:22.344Z,47.08
2023-05-19T09:49:22.324Z,46.31
2023-05-19T09:50:22.232Z,44.65
2023-05-19T09:51:22.198Z,43.48
2023-05-19T09:52:22.133Z,43.20
2023-05-19T09:53:22.089Z,43.16
2023-05-19T09:54:22.057Z,42.45
2023-05-19T09:55:21.971Z,41.51
2023-05-19T09:56:21.883Z,41.38
2023-05-19T09:57:24.656Z,39.54
2023-05-19T09:58:21.722Z,37.95
2023-05-19T09:59:21.626Z,36.92
2023-05-19T10:00:21.551Z,36.16
2023-05-19T10:01:21.507Z,36.14
2023-05-19T10:02:21.343Z,34.82
2023-05-19T10:03:21.187Z,34.96
2023-05-19T10:04:21.119Z,34.54
2023-05-19T10:05:21.054Z,35.05
2023-05-19T10:06:20.941Z,34.15
2023-05-19T10:07:20.848Z,34.60
2023-05-19T10:08:20.729Z,34.02
2023-05-19T10:09:20.598Z,34.36
2023-05-19T10:10:20.552Z,33.48
2023-05-19T10:11:20.509Z,33.77
2023-05-19T10:12:20.342Z,33.84
2023-05-19T10:13:20.247Z,33.03
2023-05-19T10:14:20.122Z,32.97
2023-05-19T10:15:22.232Z,32.64
2023-05-19T10:16:19.929Z,32.77
2023-05-19T10:17:19.921Z,34.15
2023-05-19T10:18:19.690Z,34.01
2023-05-19T10:19:19.633Z,33.47
2023-05-19T10:20:19.529Z,34.10
2023-05-19T10:21:19.389Z,33.11
2023-05-19T10:22:19.301Z,32.75
2023-05-19T10:23:19.221Z,32.87
2023-05-19T10:24:19.115Z,33.33
2023-05-19T10:25:19.057Z,33.02
2023-05-19T10:26:18.983Z,33.57
2023-05-19T10:27:18.844Z,33.33
2023-05-19T10:28:18.757Z,33.27
2023-05-19T10:29:18.673Z,33.42
2023-05-19T10:30:18.660Z,33.54
2023-05-19T10:31:18.511Z,33.16
2023-05-19T10:32:18.463Z,33.32
2023-05-19T10:33:18.452Z,32.73
2023-05-19T10:34:18.206Z,32.26
2023-05-19T10:35:18.128Z,32.11
2023-05-19T10:36:18.083Z,32.02
2023-05-19T10:37:17.849Z,32.41
2023-05-19T10:38:17.769Z,32.56
2023-05-19T10:39:17.734Z,31.64
2023-05-19T10:40:17.529Z,31.77
2023-05-19T10:41:17.418Z,31.33
2023-05-19T10:42:17.326Z,30.33
2023-05-19T10:43:17.242Z,30.62
2023-05-19T10:44:19.152Z,30.72
2023-05-19T10:45:17.032Z,31.59
2023-05-19T10:46:16.910Z,31.25
2023-05-19T10:47:16.938Z,31.79
2023-05-19T10:48:16.831Z,30.49
2023-05-19T10:49:16.692Z,31.04
2023-05-19T10:50:16.619Z,30.78
2023-05-19T10:51:16.537Z,30.18
2023-05-19T10:52:16.440Z,30.07
2023-05-19T10:53:19.272Z,29.74
2023-05-19T10:54:16.233Z,30.44
2023-05-19T10:55:16.100Z,30.30
2023-05-19T10:56:15.952Z,30.13
2023-05-19T10:57:15.776Z,29.65
2023-05-19T10:58:15.647Z,29.78
2023-05-19T10:59:15.498Z,29.26
2023-05-19T11:00:15.380Z,29.26
2023-05-19T11:01:15.200Z,29.76
2023-05-19T11:02:15.320Z,30.42
2023-05-19T11:03:14.969Z,29.58
2023-05-19T11:04:14.777Z,28.92
2023-05-19T11:05:14.677Z,28.77
2023-05-19T11:06:14.452Z,29.03
2023-05-19T11:07:14.268Z,28.65
2023-05-19T11:08:14.135Z,28.57
2023-05-19T11:09:14.022Z,28.77
2023-05-19T11:10:13.924Z,29.12
2023-05-19T11:11:13.685Z,29.01
2023-05-19T11:12:13.548Z,29.16
2023-05-19T11:14:13.326Z,29.32
2023-05-19T11:15:13.170Z,29.37
2023-05-19T11:16:13.085Z,29.79
2023-05-19T11:17:12.939Z,30.00
2023-05-19T11:18:12.895Z,29.41
2023-05-19T11:19:12.697Z,29.09
2023-05-19T11:20:12.589Z,29.98
2023-05-19T11:21:12.507Z,30.08
2023-05-19T11:22:12.410Z,30.15
2023-05-19T11:23:12.296Z,29.71
2023-05-19T11:24:12.184Z,30.09
2023-05-19T11:25:12.075Z,29.78
2023-05-19T11:26:11.923Z,30.58
2023-05-19T11:27:11.825Z,29.07
2023-05-19T11:28:11.686Z,29.32
2023-05-19T11:29:12.172Z,29.14
2023-05-19T11:30:11.618Z,28.85
2023-05-19T11:31:11.345Z,29.02
2023-05-19T11:32:12.311Z,29.88
2023-05-19T11:33:11.198Z,28.80
2023-05-19T11:34:10.997Z,28.87
2023-05-19T11:35:10.853Z,29.52
2023-05-19T11:36:10.717Z,29.45
2023-05-19T11:37:10.744Z,28.98
2023-05-19T11:38:10.538Z,29.36
2023-05-19T11:39:10.366Z,28.90
2023-05-19T11:40:10.253Z,30.20
2023-05-19T11:41:10.116Z,29.37
2023-05-19T11:42:10.007Z,29.67
2023-05-19T11:43:09.926Z,29.97
2023-05-19T11:44:09.805Z,28.59
2023-05-19T11:45:09.664Z,29.33
2023-05-19T11:46:09.702Z,29.21
2023-05-19T11:47:09.525Z,29.03
2023-05-19T11:48:09.407Z,29.01
2023-05-19T11:49:09.339Z,29.38
2023-05-19T11:50:09.201Z,29.52
2023-05-19T11:51:09.165Z,29.36
2023-05-19T11:52:09.074Z,29.44
2023-05-19T11:53:08.992Z,29.03
2023-05-19T11:54:08.903Z,28.47
2023-05-19T11:55:08.789Z,29.23
2023-05-19T11:56:08.702Z,30.23
2023-05-19T11:57:08.811Z,29.80
2023-05-19T11:58:08.566Z,28.51
2023-05-19T11:59:08.544Z,28.28
2023-05-19T12:00:08.469Z,28.50
2023-05-19T12:01:08.318Z,28.80
2023-05-19T12:02:08.293Z,28.72
2023-05-19T12:03:08.745Z,28.70
2023-05-19T12:04:08.064Z,29.24
2023-05-19T12:05:08.770Z,29.39
2023-05-19T12:06:07.905Z,29.14
2023-05-19T12:07:07.768Z,28.97
2023-05-19T12:08:08.284Z,28.26
2023-05-19T12:09:07.559Z,28.80
2023-05-19T12:10:07.459Z,27.88
2023-05-19T12:11:08.208Z,27.63
2023-05-19T12:12:07.246Z,27.77
2023-05-19T12:13:07.164Z,27.74
2023-05-19T12:14:07.698Z,28.31
2023-05-19T12:15:06.949Z,28.71
2023-05-19T12:16:06.877Z,29.45
2023-05-19T12:17:07.205Z,29.29
2023-05-19T12:18:06.816Z,28.64
2023-05-19T12:19:06.637Z,28.33
2023-05-19T12:20:06.470Z,28.85
2023-05-19T12:21:06.390Z,29.47
2023-05-19T12:22:06.300Z,29.39
2023-05-19T12:23:06.221Z,28.58
2023-05-19T12:24:06.138Z,28.40
2023-05-19T12:25:06.044Z,28.24
2023-05-19T12:26:05.977Z,29.02
2023-05-19T12:27:05.944Z,29.00
2023-05-19T12:28:05.811Z,28.81
2023-05-19T12:29:05.776Z,28.19
2023-05-19T12:30:05.799Z,29.31
2023-05-19T12:31:05.713Z,29.00
2023-05-19T12:32:07.252Z,29.60
2023-05-19T12:33:05.569Z,29.25
2023-05-19T12:34:05.521Z,29.10
2023-05-19T12:35:05.401Z,29.29
2023-05-19T12:36:05.342Z,28.07
2023-05-19T12:37:05.309Z,28.31
2023-05-19T12:38:05.257Z,28.22
2023-05-19T12:39:05.069Z,27.76
2023-05-19T12:40:05.018Z,28.27
2023-05-19T12:41:04.935Z,28.53
2023-05-19T12:42:04.836Z,28.19
2023-05-19T12:43:04.700Z,28.01
2023-05-19T12:44:04.572Z,28.57
2023-05-19T12:45:04.568Z,28.41
2023-05-19T12:46:04.371Z,28.57
2023-05-19T12:47:04.273Z,28.20
2023-05-19T12:48:04.171Z,27.92
2023-05-19T12:49:03.993Z,27.61
2023-05-19T12:50:03.926Z,28.72
2023-05-19T12:51:03.767Z,28.87
2023-05-19T12:52:06.139Z,28.49
2023-05-19T12:53:04.575Z,28.53
2023-05-19T12:54:03.479Z,28.78